Time;durP1;ratioP1;P1;durP2;ratioP2;P2;SDS_P1;SDS_P2;PMS_P1;PMS_P2;Temp;Humidity;BMP_temperature;BMP_pressure;BME280_temperature;BME280_humidity;BME280_pressure;Samples;Min_cycle;Max_cycle;Signal;HPM_P1;HPM_P2
2023/01/29 09:34:49;;;;;;;3.60;1.58;;;;;;;20.30;36.62;102993.91;5101396;27;20423;-53
2023/01/29 09:37:17;;;;;;;2.95;1.58;;;;;;;21.45;34.30;102986.59;5089363;28;20034;-48
2023/01/29 09:43:34;;;;;;;3.88;1.60;;;;;;;22.96;31.64;102982.31;5085190;28;20081;-48
2023/01/29 09:46:07;;;;;;;3.28;1.23;;;;;;;23.34;30.79;102989.44;5086107;28;20016;-50
2023/01/29 09:48:36;;;;;;;4.53;1.60;;;;;;;23.55;30.64;102988.66;5088061;28;20115;-40
2023/01/29 09:51:10;;;;;;;4.63;1.33;;;;;;;23.71;30.34;102984.13;5086664;28;20021;-41
2023/01/29 09:53:45;;;;;;;4.50;1.35;;;;;;;23.81;30.28;102986.34;5087467;28;20115;-54
2023/01/29 09:56:15;;;;;;;2.15;1.27;;;;;;;23.92;29.50;102995.56;5086495;28;20442;-46
2023/01/29 09:58:43;;;;;;;2.92;1.30;;;;;;;23.98;29.49;102995.00;5088233;28;20028;-54
2023/01/29 10:01:43;;;;;;;2.65;1.10;;;;;;;24.01;29.45;102994.25;5087480;28;20054;-52
2023/01/29 10:04:38;;;;;;;4.38;1.58;;;;;;;24.08;29.30;102991.97;5086078;28;20035;-54
2023/01/29 10:07:28;;;;;;;1.65;0.98;;;;;;;24.15;29.21;102992.25;5081467;28;20494;-48
2023/01/29 10:10:18;;;;;;;5.88;1.48;;;;;;;24.09;29.20;102983.28;5081056;28;20044;-45
2023/01/29 10:13:24;;;;;;;4.57;1.15;;;;;;;24.09;29.17;102988.50;5087511;28;20032;-41
2023/01/29 10:16:18;;;;;;;2.47;1.02;;;;;;;24.11;29.38;102979.00;5077110;28;20036;-44
2023/01/29 10:19:09;;;;;;;3.37;1.13;;;;;;;24.09;29.52;102978.03;5076698;28;20039;-57
2023/01/29 10:22:00;;;;;;;2.08;1.00;;;;;;;24.12;29.13;102979.88;5085660;28;20265;-40
2023/01/29 10:24:38;;;;;;;4.22;1.20;;;;;;;24.12;28.80;102972.00;5070383;28;20055;-40
2023/01/29 10:27:16;;;;;;;2.22;1.00;;;;;;;24.12;29.35;102972.94;5085236;28;20028;-54
2023/01/29 10:29:46;;;;;;;2.90;1.63;;;;;;;24.13;29.35;102971.19;5087636;28;20024;-40
2023/01/29 10:32:17;;;;;;;4.20;1.67;;;;;;;24.13;29.26;102968.56;5087724;28;20051;-46
2023/01/29 10:34:52;;;;;;;2.55;1.60;;;;;;;24.11;29.43;102971.13;5086341;28;20195;-41
2023/01/29 10:37:23;;;;;;;3.10;1.55;;;;;;;24.12;29.21;102980.78;5088239;28;20540;-43
2023/01/29 10:39:51;;;;;;;2.25;1.58;;;;;;;24.13;28.75;102981.66;5087462;28;20595;-58
2023/01/29 10:42:28;;;;;;;2.28;1.30;;;;;;;24.11;29.24;102988.56;5088087;28;20073;-52
2023/01/29 10:45:19;;;;;;;3.15;1.60;;;;;;;24.11;29.19;102983.31;5081083;28;20036;-56
2023/01/29 10:48:09;;;;;;;2.30;1.30;;;;;;;24.14;29.32;102987.81;5063956;28;20040;-43
2023/01/29 10:50:47;;;;;;;3.40;1.42;;;;;;;24.15;29.08;102984.38;5074503;28;20020;-41
2023/01/29 10:53:35;;;;;;;1.98;1.40;;;;;;;24.12;28.98;102983.41;5072923;28;20028;-51
2023/01/29 10:56:25;;;;;;;3.50;1.38;;;;;;;24.17;28.92;102981.00;5069491;28;20037;-56
2023/01/29 10:58:58;;;;;;;2.15;1.25;;;;;;;24.12;29.13;102986.03;5075010;28;20020;-56
2023/01/29 11:01:25;;;;;;;2.00;0.93;;;;;;;24.19;29.33;102981.03;5071398;28;20032;-52
2023/01/29 11:04:02;;;;;;;1.63;1.05;;;;;;;24.12;29.00;102972.00;5073762;28;20044;-57
2023/01/29 11:06:33;;;;;;;2.00;1.20;;;;;;;24.19;29.32;102973.16;5073513;28;20508;-56
2023/01/29 11:09:27;;;;;;;3.42;1.30;;;;;;;24.18;28.93;102974.00;5074600;28;20031;-56
2023/01/29 11:12:01;;;;;;;3.80;1.20;;;;;;;24.20;28.98;102974.97;5064198;28;20040;-56
2023/01/29 11:14:45;;;;;;;2.65;1.20;;;;;;;24.21;29.28;102972.44;5073284;28;20028;-51
2023/01/29 11:17:23;;;;;;;3.03;1.10;;;;;;;24.21;28.96;102968.91;5074588;28;20099;-55
2023/01/29 11:19:54;;;;;;;2.47;1.17;;;;;;;24.26;29.13;102970.00;5074458;28;20029;-40
2023/01/29 11:22:25;;;;;;;1.80;1.10;;;;;;;24.15;29.11;102968.66;5073065;28;20071;-57
2023/01/29 11:25:17;;;;;;;1.52;0.93;;;;;;;24.14;29.11;102959.88;5073501;28;20165;-55
2023/01/29 11:27:47;;;;;;;2.80;1.13;;;;;;;24.16;29.03;102967.81;5069693;28;20546;-51
2023/01/29 11:30:26;;;;;;;2.72;1.08;;;;;;;24.15;29.08;102955.53;5074104;28;20040;-41
2023/01/29 11:32:58;;;;;;;1.48;0.82;;;;;;;24.17;29.00;102956.47;5072282;28;20045;-58
2023/01/29 11:35:29;;;;;;;1.30;0.85;;;;;;;24.20;29.37;102957.53;5073677;28;20033;-54
2023/01/29 11:38:08;;;;;;;0.98;0.70;;;;;;;24.19;29.08;102955.72;5072909;28;20107;-55
2023/01/29 11:40:39;;;;;;;2.97;1.20;;;;;;;24.20;29.28;102949.66;5074392;28;20028;-50
2023/01/29 11:43:26;;;;;;;3.92;1.20;;;;;;;24.18;29.36;102946.06;5074813;28;20432;-57
2023/01/29 11:45:59;;;;;;;2.35;1.05;;;;;;;24.19;29.28;102953.09;5068385;28;20516;-54
2023/01/29 11:48:34;;;;;;;3.55;0.80;;;;;;;24.18;29.44;102942.53;5074160;28;20032;-40
2023/01/29 11:51:03;;;;;;;1.92;0.77;;;;;;;24.25;29.47;102936.72;5057299;28;20032;-57
2023/01/29 11:53:51;;;;;;;1.42;0.95;;;;;;;24.26;29.31;102944.66;5074811;28;20035;-53
2023/01/29 11:56:20;;;;;;;1.20;0.60;;;;;;;24.27;29.05;102935.97;5073499;28;20036;-56
2023/01/29 11:58:50;;;;;;;1.33;0.63;;;;;;;24.24;29.21;102930.56;5072893;28;20032;-40
2023/01/29 12:01:23;;;;;;;1.60;0.80;;;;;;;24.25;29.41;102931.50;5073118;28;20118;-57
2023/01/29 12:03:53;;;;;;;1.40;0.70;;;;;;;24.26;29.11;102928.03;5056680;28;20178;-52
2023/01/29 12:06:24;;;;;;;1.70;0.80;;;;;;;24.27;29.43;102922.84;5073049;28;20029;-54
2023/01/29 12:08:57;;;;;;;2.15;0.85;;;;;;;24.30;29.05;102923.81;5056526;28;20481;-57
2023/01/29 12:11:30;;;;;;;1.00;0.60;;;;;;;24.30;29.22;102916.84;5072835;28;20465;-57
2023/01/29 12:14:00;;;;;;;3.90;0.90;;;;;;;24.29;29.07;102917.69;5073928;28;20040;-40
2023/01/29 12:16:33;;;;;;;4.60;0.82;;;;;;;24.32;29.11;102909.94;5072423;28;20044;-57
2023/01/29 12:19:09;;;;;;;2.53;0.90;;;;;;;24.27;29.47;102912.34;5073099;28;20032;-57
2023/01/29 12:21:52;;;;;;;1.60;0.70;;;;;;;24.28;29.51;102906.28;5073691;28;20028;-56
2023/01/29 18:40:12;;;;;;;5.70;3.80;;;;;;;20.87;36.65;102753.81;5111033;27;20468;-55
2023/01/29 18:42:40;;;;;;;6.10;3.88;;;;;;;21.98;34.71;102748.25;5110301;28;20483;-40
2023/01/29 18:45:09;;;;;;;15.20;10.10;;;;;;;22.77;33.35;102748.50;5110146;28;20020;-56
2023/01/29 18:47:37;;;;;;;14.25;8.95;;;;;;;23.32;32.16;102744.03;5108301;28;20055;-44
2023/01/29 18:50:05;;;;;;;11.98;7.95;;;;;;;23.71;31.64;102748.28;5110224;28;20055;-49
2023/01/29 18:52:34;;;;;;;11.45;8.05;;;;;;;24.01;31.04;102753.06;5109502;28;20070;-56
2023/01/29 18:55:02;;;;;;;11.73;6.88;;;;;;;24.20;31.01;102757.31;5110057;28;20028;-45
2023/01/29 18:57:30;;;;;;;9.20;6.38;;;;;;;24.37;30.38;102760.63;5107632;28;20050;-50
2023/01/29 18:59:59;;;;;;;8.23;5.60;;;;;;;24.46;30.58;102750.47;5106357;28;20039;-49
2023/01/29 19:02:26;;;;;;;9.13;5.32;;;;;;;24.53;30.47;102744.66;5109619;28;20408;-44
2023/01/29 19:04:54;;;;;;;8.20;5.57;;;;;;;24.63;30.49;102750.25;5102297;28;20024;-53
2023/01/29 19:07:23;;;;;;;11.07;5.18;;;;;;;24.68;30.71;102746.94;5106908;28;20023;-41
2023/01/29 19:09:50;;;;;;;8.82;5.13;;;;;;;24.72;30.44;102753.28;5105674;28;20024;-52
2023/01/29 19:12:18;;;;;;;8.20;4.43;;;;;;;24.76;30.64;102738.53;5108136;28;20063;-51
2023/01/29 19:14:46;;;;;;;7.13;3.92;;;;;;;24.80;30.49;102737.81;5108376;28;20062;-41
2023/01/29 19:17:14;;;;;;;5.10;3.80;;;;;;;24.85;30.36;102741.47;5107203;28;20027;-58
2023/01/29 19:19:42;;;;;;;7.13;4.13;;;;;;;24.87;30.10;102739.81;5105412;28;20020;-43
2023/01/29 19:22:11;;;;;;;5.82;3.92;;;;;;;24.91;29.91;102728.59;5109287;28;20026;-52
2023/01/29 19:24:39;;;;;;;8.05;4.20;;;;;;;24.96;30.31;102724.41;5109386;28;20016;-59
2023/01/29 19:27:08;;;;;;;5.40;3.67;;;;;;;24.99;29.81;102724.50;5106867;28;20032;-43
2023/01/29 19:29:36;;;;;;;4.30;3.25;;;;;;;25.00;29.92;102722.78;5108241;28;20047;-54
2023/01/29 19:32:03;;;;;;;6.30;3.53;;;;;;;25.05;30.13;102722.94;5108687;28;20046;-51
2023/01/29 19:34:32;;;;;;;4.88;3.10;;;;;;;25.08;29.56;102729.19;5107880;28;20020;-53
2023/01/29 19:37:00;;;;;;;6.38;3.60;;;;;;;25.08;30.10;102729.19;5101428;28;20023;-58
2023/01/29 19:39:32;;;;;;;4.60;3.30;;;;;;;25.13;29.74;102730.25;5108986;28;20048;-40
2023/01/29 19:42:01;;;;;;;4.10;2.80;;;;;;;25.14;29.58;102723.31;5105085;28;20031;-56
2023/01/29 19:44:29;;;;;;;3.70;2.63;;;;;;;25.09;29.91;102719.59;5108758;28;20089;-43
2023/01/29 19:46:57;;;;;;;3.00;2.30;;;;;;;25.16;29.75;102734.72;5106462;28;20026;-55
2023/01/29 19:49:26;;;;;;;4.55;2.50;;;;;;;25.17;29.71;102729.53;5102761;28;20455;-57
2023/01/29 19:51:54;;;;;;;3.30;2.30;;;;;;;25.16;29.58;102729.47;5095287;28;20462;-40
2023/01/29 19:54:23;;;;;;;6.15;2.28;;;;;;;25.14;29.65;102721.56;5094818;28;20115;-56
2023/01/29 19:56:51;;;;;;;3.40;2.25;;;;;;;25.24;29.72;102729.75;5092947;28;20469;-40
2023/01/29 19:59:20;;;;;;;4.53;2.40;;;;;;;25.27;29.50;102733.41;5095082;28;20040;-57
2023/01/29 20:01:48;;;;;;;4.10;2.33;;;;;;;25.28;29.50;102739.53;5095299;28;20028;-58
2023/01/29 20:04:17;;;;;;;5.03;2.08;;;;;;;25.33;29.22;102733.59;5090671;28;20070;-42
2023/01/29 20:06:45;;;;;;;3.20;2.03;;;;;;;25.28;29.49;102719.44;5092190;28;20096;-56
2023/01/29 20:09:13;;;;;;;3.90;2.33;;;;;;;25.32;29.23;102731.81;5094454;28;20024;-48
2023/01/29 20:11:40;;;;;;;3.15;1.77;;;;;;;25.32;29.50;102723.91;5095184;28;20058;-51
2023/01/29 20:14:10;;;;;;;2.83;1.83;;;;;;;25.30;29.04;102723.00;5090774;28;20088;-53
2023/01/29 20:16:37;;;;;;;2.65;1.83;;;;;;;25.36;29.19;102729.28;5094645;28;20020;-40
2023/01/29 20:19:06;;;;;;;2.78;1.70;;;;;;;25.36;29.22;102724.03;5094347;28;20393;-50
2023/01/29 20:21:33;;;;;;;2.13;1.75;;;;;;;25.36;29.12;102716.16;5088812;28;20028;-44
2023/01/29 20:24:00;;;;;;;2.97;1.95;;;;;;;25.36;29.24;102716.16;5094294;28;20020;-55
2023/01/29 20:26:27;;;;;;;4.53;2.20;;;;;;;25.34;28.91;102709.13;5090129;28;20437;-45
2023/01/29 20:28:55;;;;;;;2.45;1.65;;;;;;;25.37;29.09;102716.22;5094577;28;20024;-40
2023/01/29 20:31:24;;;;;;;3.10;2.00;;;;;;;25.38;29.28;102712.75;5094105;28;20110;-40
2023/01/29 20:33:53;;;;;;;3.63;1.88;;;;;;;25.37;29.32;102713.59;5094118;28;20053;-58
2023/01/29 20:36:21;;;;;;;3.40;1.88;;;;;;;25.39;29.13;102724.16;5095907;28;20036;-45
2023/01/29 20:38:50;;;;;;;3.63;2.10;;;;;;;25.38;28.97;102727.63;5093851;28;20054;-47
2023/01/29 20:41:20;;;;;;;5.80;2.17;;;;;;;25.38;29.32;102736.41;5095136;28;20021;-41
2023/01/29 20:43:49;;;;;;;7.88;1.70;;;;;;;25.38;29.16;102739.03;5093774;28;20028;-54
2023/01/29 20:46:18;;;;;;;3.28;1.52;;;;;;;25.39;29.06;102740.81;5094746;28;20031;-56
2023/01/29 20:48:47;;;;;;;6.93;2.10;;;;;;;25.39;29.00;102740.81;5095336;28;20032;-56
2023/01/29 20:51:17;;;;;;;2.38;1.85;;;;;;;25.38;29.24;102746.91;5093648;28;20024;-58
2023/01/29 20:53:47;;;;;;;5.38;3.10;;;;;;;25.40;29.15;102746.97;5094929;28;20093;-44
2023/01/29 20:56:16;;;;;;;14.20;9.77;;;;;;;25.38;29.22;102749.53;5095014;28;20063;-58
2023/01/29 20:58:45;;;;;;;31.17;17.90;;;;;;;25.39;28.97;102750.41;5094982;28;20024;-57
2023/01/29 21:01:16;;;;;;;37.70;22.45;;;;;;;25.37;29.06;102739.88;5094351;28;20098;-56
2023/01/29 21:03:45;;;;;;;56.50;32.35;;;;;;;25.40;29.34;102739.06;5093318;28;20035;-48
2023/01/29 21:06:14;;;;;;;65.10;40.88;;;;;;;25.39;29.24;102737.28;5094544;28;20526;-50
2023/01/29 21:08:43;;;;;;;83.22;51.15;;;;;;;25.41;29.26;102744.38;5095000;28;20024;-40
2023/01/29 21:11:12;;;;;;;84.85;55.45;;;;;;;25.39;29.37;102753.97;5094713;28;20028;-57
2023/01/29 21:13:41;;;;;;;97.63;64.88;;;;;;;25.42;29.39;102742.69;5094571;28;20384;-52
2023/01/29 21:16:10;;;;;;;110.53;76.03;;;;;;;25.43;29.53;102752.34;5094809;28;20024;-55
2023/01/29 21:18:38;;;;;;;114.40;75.40;;;;;;;25.42;29.69;102750.56;5094573;28;20031;-57
2023/01/29 21:21:07;;;;;;;118.70;80.10;;;;;;;25.41;29.64;102747.00;5094468;28;20059;-40
2023/01/29 21:23:36;;;;;;;134.50;89.65;;;;;;;25.44;29.66;102751.53;5094279;28;20028;-55
2023/01/29 21:26:06;;;;;;;144.88;97.28;;;;;;;25.43;29.92;102741.84;5094168;28;20032;-50
2023/01/29 21:28:35;;;;;;;148.63;100.35;;;;;;;25.44;29.81;102747.16;5094579;28;20373;-52
2023/01/29 21:31:06;;;;;;;160.10;108.18;;;;;;;25.43;29.87;102747.97;5094486;28;20016;-55
2023/01/29 21:33:34;;;;;;;168.13;112.22;;;;;;;25.43;30.19;102741.84;5094143;28;20485;-54
2023/01/29 21:36:03;;;;;;;184.77;119.93;;;;;;;25.45;29.76;102740.16;5094241;28;20070;-55
2023/01/29 21:38:32;;;;;;;183.35;121.28;;;;;;;25.43;30.09;102740.09;5093424;28;20036;-41
2023/01/29 21:41:03;;;;;;;183.98;122.90;;;;;;;25.44;29.93;102743.63;5094295;28;20035;-55
2023/01/29 21:43:31;;;;;;;205.20;134.45;;;;;;;25.42;30.25;102740.94;5093970;28;20469;-49
2023/01/29 21:46:03;;;;;;;188.05;127.72;;;;;;;25.45;30.28;102733.16;5094006;28;20039;-55
2023/01/29 21:48:32;;;;;;;195.95;135.25;;;;;;;25.47;30.38;102742.00;5094006;28;20031;-41
2023/01/29 21:51:02;;;;;;;215.57;146.00;;;;;;;25.44;30.40;102739.25;5092940;28;20028;-40
2023/01/29 21:53:30;;;;;;;213.98;145.05;;;;;;;25.46;30.48;102742.84;5094054;28;20469;-47
2023/01/29 21:56:01;;;;;;;223.00;148.15;;;;;;;25.46;30.62;102734.09;5093312;28;20126;-40
2023/01/29 21:58:30;;;;;;;218.38;153.63;;;;;;;25.29;30.35;102707.16;5093882;28;20032;-48
